createdAt,value
2022-10-03T00:05:02.400Z,100.00
2022-10-03T00:10:06.146Z,100.00
2022-10-03T00:15:04.530Z,100.00
2022-10-03T00:20:03.866Z,100.00
2022-10-03T00:25:07.629Z,100.00
2022-10-03T00:30:07.996Z,100.00
2022-10-03T00:35:09.741Z,100.00
2022-10-03T00:40:37.881Z,100.00
2022-10-03T00:45:51.387Z,100.00
2022-10-03T00:51:19.427Z,100.00
2022-10-03T00:56:35.384Z,100.00
2022-10-03T01:01:39.947Z,100.00
2022-10-03T01:06:40.364Z,100.00
2022-10-03T01:11:42.697Z,100.00
2022-10-03T01:16:47.810Z,100.00
2022-10-03T01:21:49.196Z,100.00
2022-10-03T01:26:57.408Z,100.00
2022-10-03T01:31:57.051Z,100.00
2022-10-03T01:37:02.451Z,100.00
2022-10-03T01:42:00.842Z,100.00
2022-10-03T01:46:58.955Z,100.00
2022-10-03T01:51:58.119Z,100.00
2022-10-03T01:56:58.569Z,100.00
2022-10-03T02:01:56.532Z,100.00
2022-10-03T02:06:58.293Z,100.00
2022-10-03T02:12:03.299Z,100.00
2022-10-03T02:17:06.186Z,100.00
2022-10-03T02:21:58.028Z,100.00
2022-10-03T02:27:15.681Z,100.00
2022-10-03T02:32:39.669Z,100.00
2022-10-03T02:37:59.431Z,100.00
2022-10-03T02:43:16.429Z,100.00
2022-10-03T02:48:31.202Z,100.00
2022-10-03T02:53:51.311Z,100.00
2022-10-03T02:59:06.917Z,100.00
2022-10-03T03:04:25.212Z,100.00
2022-10-03T03:09:45.880Z,100.00
2022-10-03T03:15:10.876Z,100.00
2022-10-03T03:20:20.824Z,100.00
2022-10-03T03:25:24.701Z,100.00
2022-10-03T03:30:21.220Z,100.00
2022-10-03T03:35:19.739Z,100.00
2022-10-03T03:40:34.030Z,100.00
2022-10-03T03:45:37.350Z,100.00
2022-10-03T03:50:43.497Z,100.00
2022-10-03T03:55:53.267Z,100.00
2022-10-03T04:01:08.587Z,100.00
2022-10-03T04:06:19.362Z,100.00
2022-10-03T04:11:21.289Z,100.00
2022-10-03T04:16:51.284Z,100.00
2022-10-03T04:22:09.670Z,100.00
2022-10-03T04:27:28.104Z,100.00
2022-10-03T04:32:45.426Z,100.00
2022-10-03T04:37:44.690Z,100.00
2022-10-03T04:42:48.414Z,100.00
2022-10-03T04:47:48.429Z,100.00
2022-10-03T04:52:42.075Z,100.00
2022-10-03T04:57:34.504Z,100.00
2022-10-03T05:02:46.223Z,100.00
2022-10-03T05:07:42.597Z,100.00
2022-10-03T05:12:35.149Z,100.00
2022-10-03T05:17:28.119Z,100.00
2022-10-03T05:22:25.376Z,100.00
2022-10-03T05:27:18.087Z,100.00
2022-10-03T05:32:16.639Z,100.00
2022-10-03T05:37:20.832Z,100.00
2022-10-03T05:42:25.071Z,100.00
2022-10-03T05:47:37.709Z,100.00
2022-10-03T05:52:43.984Z,100.00
2022-10-03T05:57:53.044Z,100.00
2022-10-03T06:02:57.847Z,100.00
2022-10-03T06:07:59.381Z,100.00
2022-10-03T06:12:54.321Z,100.00
2022-10-03T06:17:58.577Z,100.00
2022-10-03T06:23:06.374Z,100.00
2022-10-03T06:28:19.356Z,100.00
2022-10-03T06:33:28.941Z,100.00
2022-10-03T06:38:35.087Z,100.00
2022-10-03T06:43:40.524Z,100.00
2022-10-03T06:48:47.659Z,100.00
2022-10-03T06:53:52.308Z,100.00
2022-10-03T06:59:05.477Z,100.00
2022-10-03T07:04:12.758Z,100.00
2022-10-03T07:09:27.292Z,100.00
2022-10-03T07:14:37.538Z,100.00
2022-10-03T07:19:47.835Z,100.00
2022-10-03T07:24:57.327Z,100.00
2022-10-03T07:30:06.013Z,100.00
2022-10-03T07:35:20.128Z,100.00
2022-10-03T07:40:27.980Z,100.00
2022-10-03T07:45:34.658Z,100.00
2022-10-03T07:50:46.625Z,100.00
2022-10-03T07:56:08.609Z,100.00
2022-10-03T08:01:10.381Z,100.00
2022-10-03T08:06:16.992Z,100.00
2022-10-03T08:11:14.820Z,100.00
2022-10-03T08:16:22.622Z,100.00
2022-10-03T08:21:13.224Z,100.00
2022-10-03T08:26:12.293Z,100.00
2022-10-03T08:31:16.416Z,100.00
2022-10-03T08:36:42.690Z,100.00
2022-10-03T08:41:58.135Z,100.00
2022-10-03T08:47:04.314Z,100.00
2022-10-03T08:52:02.138Z,100.00
2022-10-03T08:57:00.668Z,100.00
2022-10-03T09:02:09.927Z,100.00
2022-10-03T09:07:19.319Z,100.00
2022-10-03T09:12:25.745Z,100.00
2022-10-03T09:17:28.816Z,100.00
2022-10-03T09:22:23.194Z,100.00
2022-10-03T09:27:28.443Z,100.00
2022-10-03T09:32:43.044Z,100.00
2022-10-03T09:37:56.282Z,100.00
2022-10-03T09:42:57.169Z,100.00
2022-10-03T09:48:02.318Z,100.00
2022-10-03T09:53:07.078Z,100.00
2022-10-03T09:58:25.841Z,100.00
2022-10-03T10:03:36.805Z,100.00
2022-10-03T10:08:37.820Z,100.00
2022-10-03T10:14:06.703Z,100.00
2022-10-03T10:19:07.566Z,100.00
2022-10-03T10:24:04.339Z,100.00
2022-10-03T10:29:24.323Z,100.00
2022-10-03T10:34:57.995Z,100.00
2022-10-03T10:40:29.687Z,100.00
2022-10-03T10:45:49.642Z,100.00
2022-10-03T10:51:12.136Z,98.75
2022-10-03T10:56:40.199Z,98.62
2022-10-03T11:02:16.591Z,97.55
2022-10-03T11:07:45.743Z,95.57
2022-10-03T11:13:17.934Z,96.32
2022-10-03T11:18:41.562Z,97.71
2022-10-03T11:24:14.787Z,98.47
2022-10-03T11:29:43.996Z,99.04
2022-10-03T11:35:21.244Z,98.54
2022-10-03T11:40:39.781Z,98.53
2022-10-03T11:45:35.603Z,99.65
2022-10-03T11:50:44.996Z,99.73
2022-10-03T11:55:44.217Z,100.00
2022-10-03T12:00:39.391Z,99.38
2022-10-03T12:05:46.286Z,99.18
2022-10-03T12:10:57.073Z,99.61
2022-10-03T12:15:51.883Z,100.00
2022-10-03T12:21:07.095Z,100.00
2022-10-03T12:26:03.245Z,100.00
2022-10-03T12:30:58.071Z,99.40
2022-10-03T12:35:54.105Z,98.81
2022-10-03T12:40:50.082Z,97.32
2022-10-03T12:45:46.080Z,97.25
2022-10-03T12:50:48.833Z,97.09
2022-10-03T12:55:42.177Z,96.97
2022-10-03T13:00:41.687Z,96.38
2022-10-03T13:06:07.852Z,96.55
2022-10-03T13:11:02.781Z,96.31
2022-10-03T13:16:21.372Z,96.60
2022-10-03T13:21:44.370Z,96.59
2022-10-03T13:26:46.082Z,96.52
2022-10-03T13:31:41.710Z,95.63
2022-10-03T13:36:41.829Z,95.47
2022-10-03T13:41:45.265Z,96.69
2022-10-03T13:46:48.972Z,96.81
2022-10-03T13:51:50.306Z,95.77
2022-10-03T13:56:56.591Z,96.02
2022-10-03T14:01:59.643Z,96.41
2022-10-03T14:06:59.306Z,96.72
2022-10-03T14:11:56.260Z,96.25
2022-10-03T14:16:54.535Z,96.25
2022-10-03T14:22:09.257Z,96.59
2022-10-03T14:27:05.558Z,97.44
2022-10-03T14:32:01.370Z,96.37
2022-10-03T14:37:00.907Z,95.34
2022-10-03T14:42:19.938Z,93.26
2022-10-03T14:47:12.852Z,93.02
2022-10-03T14:52:08.979Z,93.14
2022-10-03T14:57:02.609Z,92.51
2022-10-03T15:01:55.222Z,90.79
2022-10-03T15:06:57.442Z,91.10
2022-10-03T15:11:52.411Z,89.38
2022-10-03T15:16:50.441Z,89.96
2022-10-03T15:21:45.271Z,88.88
2022-10-03T15:26:37.634Z,87.43
2022-10-03T15:31:35.669Z,87.04
2022-10-03T15:36:31.348Z,87.07
2022-10-03T15:41:30.196Z,88.66
2022-10-03T15:46:34.985Z,88.17
2022-10-03T15:51:31.434Z,89.15
2022-10-03T15:56:28.668Z,90.05
2022-10-03T16:01:24.980Z,90.82
2022-10-03T16:06:26.493Z,90.78
2022-10-03T16:11:25.391Z,90.93
2022-10-03T16:16:31.155Z,91.91
2022-10-03T16:21:57.817Z,92.18
2022-10-03T16:26:59.265Z,96.33
2022-10-03T16:31:57.732Z,98.62
2022-10-03T16:36:53.425Z,99.82
2022-10-03T16:41:49.074Z,100.00
2022-10-03T16:46:47.217Z,100.00
2022-10-03T16:51:45.914Z,100.00
2022-10-03T16:56:44.520Z,100.00
2022-10-03T17:01:40.223Z,100.00
2022-10-03T17:06:37.546Z,100.00
2022-10-03T17:11:40.492Z,100.00
2022-10-03T17:16:40.189Z,100.00
2022-10-03T17:21:39.739Z,100.00
2022-10-03T17:26:39.517Z,100.00
2022-10-03T17:31:35.184Z,100.00
2022-10-03T17:37:11.170Z,100.00
2022-10-03T17:42:10.563Z,100.00
2022-10-03T17:47:09.458Z,100.00
2022-10-03T17:52:09.050Z,100.00
2022-10-03T17:57:11.457Z,100.00
2022-10-03T18:02:09.585Z,100.00
2022-10-03T18:07:09.090Z,100.00
2022-10-03T18:12:15.455Z,100.00
2022-10-03T18:17:15.271Z,100.00
2022-10-03T18:22:19.197Z,100.00
2022-10-03T18:27:40.579Z,100.00
2022-10-03T18:32:32.685Z,100.00
2022-10-03T18:37:53.093Z,100.00
2022-10-03T18:42:50.394Z,100.00
2022-10-03T18:47:44.272Z,100.00
2022-10-03T18:52:43.855Z,100.00
2022-10-03T18:57:41.142Z,100.00
2022-10-03T19:02:39.686Z,100.00
2022-10-03T19:07:32.991Z,100.00
2022-10-03T19:12:25.788Z,100.00
2022-10-03T19:17:31.659Z,100.00
2022-10-03T19:22:31.427Z,100.00
2022-10-03T19:27:24.733Z,100.00
2022-10-03T19:32:21.944Z,100.00
2022-10-03T19:37:19.092Z,100.00
2022-10-03T19:42:30.506Z,100.00
2022-10-03T19:47:24.978Z,100.00
2022-10-03T19:52:27.175Z,100.00
2022-10-03T19:57:22.982Z,100.00
2022-10-03T20:02:14.487Z,100.00
2022-10-03T20:07:12.872Z,100.00
2022-10-03T20:12:06.890Z,100.00
2022-10-03T20:17:06.116Z,100.00
2022-10-03T20:21:58.199Z,100.00
2022-10-03T20:26:56.864Z,100.00
2022-10-03T20:31:47.593Z,100.00
2022-10-03T20:36:43.192Z,100.00
2022-10-03T20:41:42.462Z,100.00
2022-10-03T20:46:40.742Z,100.00
2022-10-03T20:51:44.533Z,100.00
2022-10-03T20:56:46.775Z,100.00
2022-10-03T21:01:40.418Z,100.00
2022-10-03T21:06:37.218Z,100.00
2022-10-03T21:11:31.975Z,100.00
2022-10-03T21:16:25.193Z,100.00
2022-10-03T21:21:22.707Z,100.00
2022-10-03T21:26:13.854Z,100.00
2022-10-03T21:31:40.200Z,100.00
2022-10-03T21:36:40.442Z,100.00
2022-10-03T21:41:40.106Z,100.00
2022-10-03T21:46:40.257Z,100.00
2022-10-03T21:51:33.578Z,100.00
2022-10-03T21:56:51.035Z,100.00
2022-10-03T22:01:49.347Z,100.00
2022-10-03T22:06:46.692Z,100.00
2022-10-03T22:11:43.397Z,100.00
2022-10-03T22:16:41.432Z,100.00
2022-10-03T22:21:41.710Z,100.00
2022-10-03T22:26:39.517Z,100.00
2022-10-03T22:31:37.010Z,100.00
2022-10-03T22:36:27.452Z,100.00
2022-10-03T22:41:29.987Z,100.00
2022-10-03T22:46:27.023Z,100.00
2022-10-03T22:51:18.977Z,100.00
2022-10-03T22:56:44.596Z,100.00
2022-10-03T23:01:36.020Z,100.00
2022-10-03T23:06:46.414Z,100.00
2022-10-03T23:11:38.037Z,100.00
2022-10-03T23:16:51.365Z,100.00
2022-10-03T23:21:47.735Z,100.00
2022-10-03T23:27:14.972Z,100.00
2022-10-03T23:32:09.267Z,100.00
2022-10-03T23:37:03.115Z,100.00
2022-10-03T23:42:02.664Z,100.00
2022-10-03T23:46:52.559Z,100.00
2022-10-03T23:51:45.478Z,100.00
2022-10-03T23:56:40.892Z,100.00
